sensor_id;sensor_type;location;lat;lon;timestamp;pressure;altitude;pressure_sealevel;temperature;humidity
68075;BME280;54864;52.002;5.468;2023-09-07T00:00:22;101779.94;;;21.54;73.09
68075;BME280;54864;52.002;5.468;2023-09-07T00:01:23;101782.75;;;21.52;72.99
68075;BME280;54864;52.002;5.468;2023-09-07T00:02:25;101781.88;;;21.51;73.06
68075;BME280;54864;52.002;5.468;2023-09-07T00:03:26;101783.53;;;21.41;73.64
68075;BME280;54864;52.002;5.468;2023-09-07T00:04:28;101777.91;;;21.44;73.59
68075;BME280;54864;52.002;5.468;2023-09-07T00:05:29;101783.28;;;21.44;73.52
68075;BME280;54864;52.002;5.468;2023-09-07T00:06:31;101778.50;;;21.37;73.96
68075;BME280;54864;52.002;5.468;2023-09-07T00:07:31;101780.34;;;21.36;73.84
68075;BME280;54864;52.002;5.468;2023-09-07T00:08:33;101778.38;;;21.38;73.67
68075;BME280;54864;52.002;5.468;2023-09-07T00:09:34;101768.97;;;21.33;73.88
68075;BME280;54864;52.002;5.468;2023-09-07T00:10:35;101774.47;;;21.31;73.93
68075;BME280;54864;52.002;5.468;2023-09-07T00:11:39;101776.91;;;21.34;73.99
68075;BME280;54864;52.002;5.468;2023-09-07T00:12:39;101772.75;;;21.30;74.30
68075;BME280;54864;52.002;5.468;2023-09-07T00:13:41;101762.75;;;21.32;74.05
68075;BME280;54864;52.002;5.468;2023-09-07T00:14:42;101773.59;;;21.31;74.00
68075;BME280;54864;52.002;5.468;2023-09-07T00:15:44;101769.94;;;21.32;73.94
68075;BME280;54864;52.002;5.468;2023-09-07T00:16:45;101767.84;;;21.24;74.17
68075;BME280;54864;52.002;5.468;2023-09-07T00:17:46;101772.00;;;21.28;74.15
68075;BME280;54864;52.002;5.468;2023-09-07T00:18:47;101770.94;;;21.18;74.69
68075;BME280;54864;52.002;5.468;2023-09-07T00:19:49;101770.72;;;21.21;74.66
68075;BME280;54864;52.002;5.468;2023-09-07T00:20:53;101765.16;;;21.24;74.48
68075;BME280;54864;52.002;5.468;2023-09-07T00:21:53;101770.63;;;21.23;74.43
68075;BME280;54864;52.002;5.468;2023-09-07T00:22:56;101768.69;;;21.25;74.42
68075;BME280;54864;52.002;5.468;2023-09-07T00:23:57;101773.22;;;21.24;74.08
68075;BME280;54864;52.002;5.468;2023-09-07T00:25:05;101767.66;;;21.14;74.79
68075;BME280;54864;52.002;5.468;2023-09-07T00:26:14;101772.03;;;21.15;74.75
68075;BME280;54864;52.002;5.468;2023-09-07T00:27:17;101775.47;;;21.17;74.78
68075;BME280;54864;52.002;5.468;2023-09-07T00:28:19;101771.81;;;21.18;74.79
68075;BME280;54864;52.002;5.468;2023-09-07T00:29:20;101769.34;;;21.15;74.84
68075;BME280;54864;52.002;5.468;2023-09-07T00:30:22;101766.78;;;21.14;74.75
68075;BME280;54864;52.002;5.468;2023-09-07T00:31:23;101765.06;;;21.13;74.60
68075;BME280;54864;52.002;5.468;2023-09-07T00:32:25;101766.06;;;21.12;74.60
68075;BME280;54864;52.002;5.468;2023-09-07T00:33:26;101765.06;;;21.13;74.61
68075;BME280;54864;52.002;5.468;2023-09-07T00:38:10;101761.03;;;21.07;74.29
68075;BME280;54864;52.002;5.468;2023-09-07T00:39:12;101763.72;;;21.07;74.38
68075;BME280;54864;52.002;5.468;2023-09-07T00:40:13;101763.72;;;21.07;74.52
68075;BME280;54864;52.002;5.468;2023-09-07T00:41:15;101762.22;;;21.03;74.39
68075;BME280;54864;52.002;5.468;2023-09-07T00:42:17;101755.03;;;21.04;74.48
68075;BME280;54864;52.002;5.468;2023-09-07T00:43:18;101774.78;;;21.03;74.26
68075;BME280;54864;52.002;5.468;2023-09-07T00:44:19;101759.66;;;21.02;74.29
68075;BME280;54864;52.002;5.468;2023-09-07T00:45:21;101765.03;;;21.02;74.21
68075;BME280;54864;52.002;5.468;2023-09-07T00:46:22;101766.00;;;21.01;74.06
68075;BME280;54864;52.002;5.468;2023-09-07T00:47:23;101763.53;;;20.98;74.37
68075;BME280;54864;52.002;5.468;2023-09-07T00:48:24;101764.63;;;20.95;74.51
68075;BME280;54864;52.002;5.468;2023-09-07T00:49:26;101763.66;;;20.96;74.43
68075;BME280;54864;52.002;5.468;2023-09-07T00:50:27;101763.75;;;20.95;74.40
68075;BME280;54864;52.002;5.468;2023-09-07T00:51:29;101762.28;;;20.91;74.43
68075;BME280;54864;52.002;5.468;2023-09-07T00:52:30;101768.72;;;20.88;74.69
68075;BME280;54864;52.002;5.468;2023-09-07T00:53:33;101764.09;;;20.90;74.56
68075;BME280;54864;52.002;5.468;2023-09-07T00:54:34;101768.63;;;20.89;74.63
68075;BME280;54864;52.002;5.468;2023-09-07T00:55:37;101765.06;;;20.89;74.42
68075;BME280;54864;52.002;5.468;2023-09-07T00:56:38;101765.06;;;20.89;74.62
68075;BME280;54864;52.002;5.468;2023-09-07T00:57:42;101763.47;;;20.86;74.59
68075;BME280;54864;52.002;5.468;2023-09-07T00:58:46;101766.28;;;20.85;74.67
68075;BME280;54864;52.002;5.468;2023-09-07T00:59:47;101764.44;;;20.85;74.64
68075;BME280;54864;52.002;5.468;2023-09-07T01:00:48;101762.84;;;20.83;74.52
68075;BME280;54864;52.002;5.468;2023-09-07T01:01:50;101761.13;;;20.82;74.50
68075;BME280;54864;52.002;5.468;2023-09-07T01:02:51;101766.28;;;20.85;74.85
68075;BME280;54864;52.002;5.468;2023-09-07T01:03:52;101755.97;;;20.79;74.97
68075;BME280;54864;52.002;5.468;2023-09-07T01:04:53;101761.44;;;20.77;74.92
68075;BME280;54864;52.002;5.468;2023-09-07T01:05:58;101763.16;;;20.78;74.99
68075;BME280;54864;52.002;5.468;2023-09-07T01:07:03;101762.63;;;20.73;75.22
68075;BME280;54864;52.002;5.468;2023-09-07T01:08:15;101758.13;;;20.74;75.16
68075;BME280;54864;52.002;5.468;2023-09-07T01:09:24;101759.22;;;20.71;75.34
68075;BME280;54864;52.002;5.468;2023-09-07T01:10:28;101762.75;;;20.72;75.00
68075;BME280;54864;52.002;5.468;2023-09-07T01:11:35;101756.53;;;20.71;74.77
68075;BME280;54864;52.002;5.468;2023-09-07T01:12:38;101760.28;;;20.69;74.94
68075;BME280;54864;52.002;5.468;2023-09-07T01:13:40;101755.03;;;20.67;75.13
68075;BME280;54864;52.002;5.468;2023-09-07T01:14:42;101761.38;;;20.66;75.08
68075;BME280;54864;52.002;5.468;2023-09-07T01:15:43;101759.53;;;20.67;74.85
68075;BME280;54864;52.002;5.468;2023-09-07T01:16:45;101755.91;;;20.68;75.16
68075;BME280;54864;52.002;5.468;2023-09-07T01:17:46;101761.47;;;20.65;74.97
68075;BME280;54864;52.002;5.468;2023-09-07T01:18:48;101758.81;;;20.65;75.00
68075;BME280;54864;52.002;5.468;2023-09-07T01:19:50;101756.13;;;20.65;75.13
68075;BME280;54864;52.002;5.468;2023-09-07T01:20:54;101764.16;;;20.65;74.99
68075;BME280;54864;52.002;5.468;2023-09-07T01:21:57;101758.91;;;20.63;75.15
68075;BME280;54864;52.002;5.468;2023-09-07T01:22:59;101753.03;;;20.58;75.33
68075;BME280;54864;52.002;5.468;2023-09-07T01:24:01;101755.72;;;20.58;75.20
68075;BME280;54864;52.002;5.468;2023-09-07T01:25:05;101754.75;;;20.59;75.10
68075;BME280;54864;52.002;5.468;2023-09-07T01:26:08;101760.31;;;20.56;75.27
68075;BME280;54864;52.002;5.468;2023-09-07T01:27:10;101755.81;;;20.56;75.05
68075;BME280;54864;52.002;5.468;2023-09-07T01:28:10;101755.94;;;20.55;75.25
68075;BME280;54864;52.002;5.468;2023-09-07T01:29:12;101754.00;;;20.57;75.05
68075;BME280;54864;52.002;5.468;2023-09-07T01:30:13;101758.72;;;20.53;75.39
68075;BME280;54864;52.002;5.468;2023-09-07T01:31:14;101748.22;;;20.50;75.46
68075;BME280;54864;52.002;5.468;2023-09-07T01:32:16;101754.44;;;20.51;75.64
68075;BME280;54864;52.002;5.468;2023-09-07T01:33:17;101757.13;;;20.51;75.43
68075;BME280;54864;52.002;5.468;2023-09-07T01:34:18;101756.94;;;20.41;76.49
68075;BME280;54864;52.002;5.468;2023-09-07T01:35:20;101750.81;;;20.39;76.35
68075;BME280;54864;52.002;5.468;2023-09-07T01:36:25;101753.28;;;20.42;76.40
68075;BME280;54864;52.002;5.468;2023-09-07T01:37:28;101748.03;;;20.41;76.46
68075;BME280;54864;52.002;5.468;2023-09-07T01:38:29;101757.91;;;20.40;76.22
68075;BME280;54864;52.002;5.468;2023-09-07T01:39:31;101753.41;;;20.41;76.19
68075;BME280;54864;52.002;5.468;2023-09-07T01:40:31;101746.22;;;20.41;76.22
68075;BME280;54864;52.002;5.468;2023-09-07T01:41:36;101746.50;;;20.37;76.49
68075;BME280;54864;52.002;5.468;2023-09-07T01:42:36;101744.81;;;20.36;76.73
68075;BME280;54864;52.002;5.468;2023-09-07T01:43:38;101744.81;;;20.36;76.70
68075;BME280;54864;52.002;5.468;2023-09-07T01:44:39;101749.75;;;20.29;76.93
68075;BME280;54864;52.002;5.468;2023-09-07T01:45:41;101746.44;;;20.25;77.36
68075;BME280;54864;52.002;5.468;2023-09-07T01:46:41;101737.75;;;20.22;77.58
68075;BME280;54864;52.002;5.468;2023-09-07T01:47:43;101751.16;;;20.22;77.49
68075;BME280;54864;52.002;5.468;2023-09-07T01:48:43;101744.06;;;20.21;77.35
68075;BME280;54864;52.002;5.468;2023-09-07T01:49:45;101740.44;;;20.22;77.38
68075;BME280;54864;52.002;5.468;2023-09-07T01:50:46;101743.09;;;20.22;77.05
68075;BME280;54864;52.002;5.468;2023-09-07T01:51:51;101742.03;;;20.24;76.89
68075;BME280;54864;52.002;5.468;2023-09-07T01:52:55;101745.03;;;20.20;77.23
68075;BME280;54864;52.002;5.468;2023-09-07T01:54:03;101743.84;;;20.24;76.96
68075;BME280;54864;52.002;5.468;2023-09-07T01:55:04;101740.75;;;20.17;77.44
68075;BME280;54864;52.002;5.468;2023-09-07T01:56:06;101739.03;;;20.16;77.16
68075;BME280;54864;52.002;5.468;2023-09-07T01:57:07;101738.09;;;20.17;77.37
68075;BME280;54864;52.002;5.468;2023-09-07T01:58:08;101735.50;;;20.16;77.35
68075;BME280;54864;52.002;5.468;2023-09-07T01:59:09;101738.19;;;20.16;77.48
68075;BME280;54864;52.002;5.468;2023-09-07T02:00:12;101737.31;;;20.15;77.42
68075;BME280;54864;52.002;5.468;2023-09-07T02:01:22;101733.78;;;20.15;77.12
68075;BME280;54864;52.002;5.468;2023-09-07T02:02:24;101739.13;;;20.15;77.27
68075;BME280;54864;52.002;5.468;2023-09-07T02:03:25;101735.69;;;20.13;77.30
68075;BME280;54864;52.002;5.468;2023-09-07T02:04:26;101738.28;;;20.14;77.21
68075;BME280;54864;52.002;5.468;2023-09-07T02:05:27;101727.88;;;20.10;77.51
68075;BME280;54864;52.002;5.468;2023-09-07T02:06:29;101739.78;;;20.06;77.74
68075;BME280;54864;52.002;5.468;2023-09-07T02:07:30;101734.53;;;20.04;77.72
68075;BME280;54864;52.002;5.468;2023-09-07T02:08:32;101740.84;;;20.03;77.63
68075;BME280;54864;52.002;5.468;2023-09-07T02:09:33;101736.47;;;20.02;77.77
68075;BME280;54864;52.002;5.468;2023-09-07T02:10:34;101735.81;;;19.99;78.16
68075;BME280;54864;52.002;5.468;2023-09-07T02:11:36;101739.25;;;20.01;77.88
68075;BME280;54864;52.002;5.468;2023-09-07T02:12:37;101739.25;;;20.01;77.77
68075;BME280;54864;52.002;5.468;2023-09-07T02:13:41;101734.00;;;19.99;77.70
68075;BME280;54864;52.002;5.468;2023-09-07T02:14:42;101732.06;;;20.01;77.92
68075;BME280;54864;52.002;5.468;2023-09-07T02:15:43;101735.81;;;19.99;77.94
68075;BME280;54864;52.002;5.468;2023-09-07T02:16:44;101741.50;;;19.94;78.18
68075;BME280;54864;52.002;5.468;2023-09-07T02:17:46;101734.22;;;19.96;78.41
68075;BME280;54864;52.002;5.468;2023-09-07T02:18:49;101737.31;;;19.90;78.47
68075;BME280;54864;52.002;5.468;2023-09-07T02:19:51;101729.41;;;19.88;78.60
68075;BME280;54864;52.002;5.468;2023-09-07T02:20:52;101734.66;;;19.90;78.47
68075;BME280;54864;52.002;5.468;2023-09-07T02:21:53;101729.28;;;19.90;78.48
68075;BME280;54864;52.002;5.468;2023-09-07T02:22:54;101736.56;;;19.88;78.76
68075;BME280;54864;52.002;5.468;2023-09-07T02:23:57;101739.56;;;19.83;79.25
68075;BME280;54864;52.002;5.468;2023-09-07T02:24:58;101733.91;;;19.88;78.85
68075;BME280;54864;52.002;5.468;2023-09-07T02:26:00;101731.97;;;19.90;78.62
68075;BME280;54864;52.002;5.468;2023-09-07T02:27:00;101735.41;;;19.92;78.54
68075;BME280;54864;52.002;5.468;2023-09-07T02:28:02;101732.81;;;19.90;78.41
68075;BME280;54864;52.002;5.468;2023-09-07T02:29:03;101737.44;;;19.88;78.55
68075;BME280;54864;52.002;5.468;2023-09-07T02:30:07;101739.34;;;19.86;78.66
68075;BME280;54864;52.002;5.468;2023-09-07T02:31:08;101738.50;;;19.86;78.56
68075;BME280;54864;52.002;5.468;2023-09-07T02:32:10;101738.28;;;19.76;79.31
68075;BME280;54864;52.002;5.468;2023-09-07T02:33:10;101740.84;;;19.78;79.96
68075;BME280;54864;52.002;5.468;2023-09-07T02:34:12;101738.19;;;19.78;79.45
68075;BME280;54864;52.002;5.468;2023-09-07T02:35:13;101737.97;;;19.81;79.48
68075;BME280;54864;52.002;5.468;2023-09-07T02:36:15;101736.91;;;19.83;79.37
68075;BME280;54864;52.002;5.468;2023-09-07T02:37:16;101732.81;;;19.78;80.00
68075;BME280;54864;52.002;5.468;2023-09-07T02:38:18;101737.22;;;19.79;79.92
68075;BME280;54864;52.002;5.468;2023-09-07T02:39:20;101731.75;;;19.80;79.66
68075;BME280;54864;52.002;5.468;2023-09-07T02:40:21;101739.56;;;19.71;80.41
68075;BME280;54864;52.002;5.468;2023-09-07T02:41:23;101741.91;;;19.75;80.30
68075;BME280;54864;52.002;5.468;2023-09-07T02:42:23;101741.81;;;19.77;80.29
68075;BME280;54864;52.002;5.468;2023-09-07T02:43:25;101731.44;;;19.72;80.69
68075;BME280;54864;52.002;5.468;2023-09-07T02:44:26;101730.38;;;19.75;80.30
68075;BME280;54864;52.002;5.468;2023-09-07T02:45:27;101739.13;;;19.77;80.05
68075;BME280;54864;52.002;5.468;2023-09-07T02:46:28;101733.47;;;19.81;79.72
68075;BME280;54864;52.002;5.468;2023-09-07T02:47:30;101748.56;;;19.82;79.83
68075;BME280;54864;52.002;5.468;2023-09-07T02:48:30;101743.22;;;19.82;79.69
68075;BME280;54864;52.002;5.468;2023-09-07T02:49:32;101739.78;;;19.80;79.87
68075;BME280;54864;52.002;5.468;2023-09-07T02:50:34;101741.06;;;19.75;80.17
68075;BME280;54864;52.002;5.468;2023-09-07T02:51:35;101742.25;;;19.71;80.68
68075;BME280;54864;52.002;5.468;2023-09-07T02:52:36;101734.44;;;19.68;81.08
68075;BME280;54864;52.002;5.468;2023-09-07T02:53:38;101735.28;;;19.68;80.77
68075;BME280;54864;52.002;5.468;2023-09-07T02:54:40;101733.66;;;19.66;80.88
68075;BME280;54864;52.002;5.468;2023-09-07T02:55:42;101735.50;;;19.65;81.19
68075;BME280;54864;52.002;5.468;2023-09-07T02:56:43;101744.06;;;19.70;80.78
68075;BME280;54864;52.002;5.468;2023-09-07T02:57:43;101734.00;;;19.74;80.45
68075;BME280;54864;52.002;5.468;2023-09-07T02:58:45;101732.06;;;19.76;80.18
68075;BME280;54864;52.002;5.468;2023-09-07T02:59:45;101738.50;;;19.73;80.34
68075;BME280;54864;52.002;5.468;2023-09-07T03:00:47;101741.16;;;19.73;80.42
68075;BME280;54864;52.002;5.468;2023-09-07T03:01:48;101736.78;;;19.72;80.57
68075;BME280;54864;52.002;5.468;2023-09-07T03:02:50;101738.50;;;19.73;80.69
68075;BME280;54864;52.002;5.468;2023-09-07T03:03:50;101739.66;;;19.69;80.77
68075;BME280;54864;52.002;5.468;2023-09-07T03:04:53;101738.19;;;19.78;80.33
68075;BME280;54864;52.002;5.468;2023-09-07T03:05:54;101735.41;;;19.79;79.92
68075;BME280;54864;52.002;5.468;2023-09-07T03:06:56;101738.91;;;19.67;80.54
68075;BME280;54864;52.002;5.468;2023-09-07T03:07:56;101738.81;;;19.69;80.66
68075;BME280;54864;52.002;5.468;2023-09-07T03:08:57;101734.31;;;19.69;80.80
68075;BME280;54864;52.002;5.468;2023-09-07T03:10:00;101739.34;;;19.61;81.26
68075;BME280;54864;52.002;5.468;2023-09-07T03:11:02;101739.66;;;19.56;81.58
68075;BME280;54864;52.002;5.468;2023-09-07T03:12:04;101732.06;;;19.63;81.29
68075;BME280;54864;52.002;5.468;2023-09-07T03:13:06;101737.19;;;19.53;81.70
68075;BME280;54864;52.002;5.468;2023-09-07T03:14:07;101735.81;;;19.60;81.35
68075;BME280;54864;52.002;5.468;2023-09-07T03:15:09;101742.13;;;19.59;81.36
68075;BME280;54864;52.002;5.468;2023-09-07T03:16:10;101739.22;;;19.62;80.74
68075;BME280;54864;52.002;5.468;2023-09-07T03:17:11;101739.34;;;19.61;81.23
68075;BME280;54864;52.002;5.468;2023-09-07T03:18:12;101736.13;;;19.69;80.70
68075;BME280;54864;52.002;5.468;2023-09-07T03:19:14;101740.09;;;19.63;80.51
68075;BME280;54864;52.002;5.468;2023-09-07T03:20:15;101741.91;;;19.62;80.64
68075;BME280;54864;52.002;5.468;2023-09-07T03:21:17;101733.88;;;19.62;80.86
68075;BME280;54864;52.002;5.468;2023-09-07T03:22:19;101744.69;;;19.61;80.78
68075;BME280;54864;52.002;5.468;2023-09-07T03:23:19;101735.38;;;19.67;80.58
68075;BME280;54864;52.002;5.468;2023-09-07T03:24:21;101734.94;;;19.60;80.90
68075;BME280;54864;52.002;5.468;2023-09-07T03:25:23;101737.31;;;19.65;80.65
68075;BME280;54864;52.002;5.468;2023-09-07T03:26:25;101736.88;;;19.58;80.95
68075;BME280;54864;52.002;5.468;2023-09-07T03:27:25;101732.06;;;19.63;80.60
68075;BME280;54864;52.002;5.468;2023-09-07T03:28:26;101736.88;;;19.58;80.68
68075;BME280;54864;52.002;5.468;2023-09-07T03:29:29;101731.31;;;19.61;80.61
68075;BME280;54864;52.002;5.468;2023-09-07T03:30:30;101734.75;;;19.63;80.51
68075;BME280;54864;52.002;5.468;2023-09-07T03:31:31;101734.63;;;19.65;80.22
68075;BME280;54864;52.002;5.468;2023-09-07T03:32:32;101731.09;;;19.64;80.35
68075;BME280;54864;52.002;5.468;2023-09-07T03:33:33;101730.13;;;19.52;80.73
68075;BME280;54864;52.002;5.468;2023-09-07T03:34:35;101734.41;;;19.55;80.89
68075;BME280;54864;52.002;5.468;2023-09-07T03:35:36;101731.91;;;19.52;81.17
68075;BME280;54864;52.002;5.468;2023-09-07T03:36:37;101735.56;;;19.51;80.89
68075;BME280;54864;52.002;5.468;2023-09-07T03:37:42;101724.47;;;19.57;80.59
68075;BME280;54864;52.002;5.468;2023-09-07T03:38:43;101732.81;;;19.52;80.33
68075;BME280;54864;52.002;5.468;2023-09-07T03:39:45;101735.28;;;19.55;80.03
68075;BME280;54864;52.002;5.468;2023-09-07T03:40:47;101724.16;;;19.47;80.74
68075;BME280;54864;52.002;5.468;2023-09-07T03:41:48;101734.00;;;19.47;80.73
68075;BME280;54864;52.002;5.468;2023-09-07T03:42:49;101728.47;;;19.50;80.64
68075;BME280;54864;52.002;5.468;2023-09-07T03:43:51;101732.69;;;19.54;80.18
68075;BME280;54864;52.002;5.468;2023-09-07T03:44:51;101731.06;;;19.51;80.34
68075;BME280;54864;52.002;5.468;2023-09-07T03:45:53;101732.59;;;19.55;80.00
68075;BME280;54864;52.002;5.468;2023-09-07T03:46:54;101739.56;;;19.58;79.59
68075;BME280;54864;52.002;5.468;2023-09-07T03:47:55;101738.38;;;19.62;79.27
68075;BME280;54864;52.002;5.468;2023-09-07T03:48:56;101735.81;;;19.60;79.34
68075;BME280;54864;52.002;5.468;2023-09-07T03:49:58;101735.81;;;19.60;79.18
68075;BME280;54864;52.002;5.468;2023-09-07T03:50:59;101728.63;;;19.61;79.07
68075;BME280;54864;52.002;5.468;2023-09-07T03:52:01;101732.38;;;19.58;79.29
68075;BME280;54864;52.002;5.468;2023-09-07T03:53:02;101735.81;;;19.60;78.88
68075;BME280;54864;52.002;5.468;2023-09-07T03:54:06;101735.69;;;19.62;79.07
68075;BME280;54864;52.002;5.468;2023-09-07T03:55:08;101738.06;;;19.54;79.32
68075;BME280;54864;52.002;5.468;2023-09-07T03:56:10;101739.66;;;19.56;79.22
68075;BME280;54864;52.002;5.468;2023-09-07T03:57:12;101735.72;;;19.48;79.52
68075;BME280;54864;52.002;5.468;2023-09-07T03:58:13;101741.06;;;19.48;79.55
68075;BME280;54864;52.002;5.468;2023-09-07T03:59:15;101744.25;;;19.54;79.10
68075;BME280;54864;52.002;5.468;2023-09-07T04:00:17;101739.94;;;19.52;78.70
68075;BME280;54864;52.002;5.468;2023-09-07T04:01:19;101740.72;;;19.54;79.11
68075;BME280;54864;52.002;5.468;2023-09-07T04:02:19;101739.94;;;19.52;79.22
68075;BME280;54864;52.002;5.468;2023-09-07T04:03:21;101742.63;;;19.52;78.97
68075;BME280;54864;52.002;5.468;2023-09-07T04:04:22;101746.25;;;19.51;78.85
68075;BME280;54864;52.002;5.468;2023-09-07T04:05:24;101743.56;;;19.51;78.74
68075;BME280;54864;52.002;5.468;2023-09-07T04:06:24;101737.53;;;19.47;79.05
68075;BME280;54864;52.002;5.468;2023-09-07T04:07:32;101739.00;;;19.53;78.72
68075;BME280;54864;52.002;5.468;2023-09-07T04:08:33;101744.50;;;19.50;79.06
68075;BME280;54864;52.002;5.468;2023-09-07T04:09:36;101742.78;;;19.49;79.09
68075;BME280;54864;52.002;5.468;2023-09-07T04:10:37;101742.03;;;19.47;79.16
68075;BME280;54864;52.002;5.468;2023-09-07T04:11:40;101730.16;;;19.38;79.26
68075;BME280;54864;52.002;5.468;2023-09-07T04:12:41;101744.91;;;19.44;79.32
68075;BME280;54864;52.002;5.468;2023-09-07T04:13:43;101742.44;;;19.41;79.32
68075;BME280;54864;52.002;5.468;2023-09-07T04:14:44;101753.16;;;19.41;79.13
68075;BME280;54864;52.002;5.468;2023-09-07T04:15:45;101744.16;;;19.42;79.00
68075;BME280;54864;52.002;5.468;2023-09-07T04:16:46;101746.84;;;19.42;79.01
68075;BME280;54864;52.002;5.468;2023-09-07T04:17:49;101748.88;;;19.38;79.13
68075;BME280;54864;52.002;5.468;2023-09-07T04:18:50;101742.66;;;19.38;79.19
68075;BME280;54864;52.002;5.468;2023-09-07T04:19:52;101748.88;;;19.38;79.18
68075;BME280;54864;52.002;5.468;2023-09-07T04:20:53;101746.41;;;19.35;79.15
68075;BME280;54864;52.002;5.468;2023-09-07T04:21:56;101748.88;;;19.38;79.07
68075;BME280;54864;52.002;5.468;2023-09-07T04:22:57;101748.22;;;19.35;79.03
68075;BME280;54864;52.002;5.468;2023-09-07T04:23:59;101748.13;;;19.36;78.80
68075;BME280;54864;52.002;5.468;2023-09-07T04:24:59;101743.72;;;19.35;78.77
68075;BME280;54864;52.002;5.468;2023-09-07T04:26:06;101742.88;;;19.35;78.82
68075;BME280;54864;52.002;5.468;2023-09-07T04:27:08;101743.84;;;19.33;78.51
68075;BME280;54864;52.002;5.468;2023-09-07T04:28:10;101742.97;;;19.33;78.43
68075;BME280;54864;52.002;5.468;2023-09-07T04:29:10;101741.16;;;19.33;78.35
68075;BME280;54864;52.002;5.468;2023-09-07T04:30:14;101741.81;;;19.37;78.29
68075;BME280;54864;52.002;5.468;2023-09-07T04:31:15;101738.69;;;19.30;78.34
68075;BME280;54864;52.002;5.468;2023-09-07T04:32:16;101743.28;;;19.28;78.54
68075;BME280;54864;52.002;5.468;2023-09-07T04:33:18;101742.31;;;19.29;78.66
68075;BME280;54864;52.002;5.468;2023-09-07T04:34:18;101747.56;;;19.31;78.71
68075;BME280;54864;52.002;5.468;2023-09-07T04:35:20;101745.09;;;19.28;78.58
68075;BME280;54864;52.002;5.468;2023-09-07T04:36:22;101750.66;;;19.25;79.03
68075;BME280;54864;52.002;5.468;2023-09-07T04:37:22;101743.69;;;19.22;79.00
68075;BME280;54864;52.002;5.468;2023-09-07T04:38:24;101741.03;;;19.22;79.06
68075;BME280;54864;52.002;5.468;2023-09-07T04:39:25;101747.31;;;19.21;78.97
68075;BME280;54864;52.002;5.468;2023-09-07T04:40:27;101746.47;;;19.21;79.23
68075;BME280;54864;52.002;5.468;2023-09-07T04:41:27;101743.16;;;19.17;79.16
68075;BME280;54864;52.002;5.468;2023-09-07T04:42:30;101745.91;;;19.16;79.10
68075;BME280;54864;52.002;5.468;2023-09-07T04:43:31;101744.09;;;19.16;78.85
68075;BME280;54864;52.002;5.468;2023-09-07T04:44:32;101752.88;;;19.18;78.50
68075;BME280;54864;52.002;5.468;2023-09-07T04:45:34;101749.44;;;19.16;78.65
68075;BME280;54864;52.002;5.468;2023-09-07T04:46:34;101746.78;;;19.16;78.59
68075;BME280;54864;52.002;5.468;2023-09-07T04:47:39;101747.84;;;19.14;78.68
68075;BME280;54864;52.002;5.468;2023-09-07T04:48:40;101751.88;;;19.07;79.29
68075;BME280;54864;52.002;5.468;2023-09-07T04:49:42;101750.72;;;19.11;78.93
68075;BME280;54864;52.002;5.468;2023-09-07T04:50:48;101744.81;;;19.06;79.40
68075;BME280;54864;52.002;5.468;2023-09-07T04:51:53;101751.13;;;19.05;79.12
68075;BME280;54864;52.002;5.468;2023-09-07T04:52:53;101755.50;;;19.06;78.96
68075;BME280;54864;52.002;5.468;2023-09-07T04:53:55;101751.13;;;19.05;78.91
68075;BME280;54864;52.002;5.468;2023-09-07T04:54:56;101760.50;;;18.97;79.45
68075;BME280;54864;52.002;5.468;2023-09-07T04:55:58;101754.41;;;18.95;79.45
68075;BME280;54864;52.002;5.468;2023-09-07T04:56:59;101759.66;;;18.97;79.22
68075;BME280;54864;52.002;5.468;2023-09-07T04:58:02;101753.44;;;18.96;79.40
68075;BME280;54864;52.002;5.468;2023-09-07T04:59:03;101754.19;;;18.98;79.24
68075;BME280;54864;52.002;5.468;2023-09-07T05:00:12;101756.00;;;18.98;79.07
68075;BME280;54864;52.002;5.468;2023-09-07T05:01:13;101753.44;;;18.96;79.14
68075;BME280;54864;52.002;5.468;2023-09-07T05:02:14;101756.78;;;19.00;78.91
68075;BME280;54864;52.002;5.468;2023-09-07T05:03:15;101757.94;;;18.96;79.06
68075;BME280;54864;52.002;5.468;2023-09-07T05:04:17;101759.00;;;18.93;79.14
68075;BME280;54864;52.002;5.468;2023-09-07T05:05:17;101754.41;;;18.95;78.90
68075;BME280;54864;52.002;5.468;2023-09-07T05:06:19;101764.34;;;18.93;78.76
68075;BME280;54864;52.002;5.468;2023-09-07T05:07:20;101762.53;;;18.94;78.82
68075;BME280;54864;52.002;5.468;2023-09-07T05:08:22;101761.22;;;18.87;78.89
68075;BME280;54864;52.002;5.468;2023-09-07T05:09:23;101761.88;;;18.90;78.63
68075;BME280;54864;52.002;5.468;2023-09-07T05:10:25;101762.81;;;18.89;78.79
68075;BME280;54864;52.002;5.468;2023-09-07T05:11:26;101756.72;;;18.87;78.69
68075;BME280;54864;52.002;5.468;2023-09-07T05:12:28;101760.06;;;18.91;78.77
68075;BME280;54864;52.002;5.468;2023-09-07T05:13:30;101763.69;;;18.90;79.01
68075;BME280;54864;52.002;5.468;2023-09-07T05:14:32;101760.16;;;18.89;78.69
68075;BME280;54864;52.002;5.468;2023-09-07T05:15:33;101758.59;;;18.85;78.85
68075;BME280;54864;52.002;5.468;2023-09-07T05:16:34;101761.75;;;18.92;78.71
68075;BME280;54864;52.002;5.468;2023-09-07T05:17:35;101761.22;;;18.87;79.05
68075;BME280;54864;52.002;5.468;2023-09-07T05:18:40;101763.78;;;18.88;79.14
68075;BME280;54864;52.002;5.468;2023-09-07T05:19:41;101764.84;;;18.86;79.40
68075;BME280;54864;52.002;5.468;2023-09-07T05:20:43;101773.78;;;18.85;79.34
68075;BME280;54864;52.002;5.468;2023-09-07T05:21:45;101774.84;;;18.82;79.50
68075;BME280;54864;52.002;5.468;2023-09-07T05:22:47;101771.59;;;18.77;80.09
68075;BME280;54864;52.002;5.468;2023-09-07T05:23:48;101776.66;;;18.82;79.60
68075;BME280;54864;52.002;5.468;2023-09-07T05:24:49;101770.44;;;18.81;79.59
68075;BME280;54864;52.002;5.468;2023-09-07T05:25:54;101774.72;;;18.84;79.53
68075;BME280;54864;52.002;5.468;2023-09-07T05:26:56;101772.91;;;18.84;79.61